Time;durP1;ratioP1;P1;durP2;ratioP2;P2;SDS_P1;SDS_P2;PMS_P1;PMS_P2;Temp;Humidity;BMP_temperature;BMP_pressure;BME280_temperature;BME280_humidity;BME280_pressure;Samples;Min_cycle;Max_cycle;Signal;HPM_P1;HPM_P2
2022/12/15 00:40:03;;;;;;;21.73;12.80;;;-6.50;99.90;;;;;;5093902;28;20048;-77
2022/12/15 00:42:28;;;;;;;23.15;12.43;;;-6.60;99.90;;;;;;5093376;28;20051;-76
2022/12/15 00:44:55;;;;;;;25.53;12.80;;;-6.50;99.90;;;;;;5093378;28;20051;-77
2022/12/15 00:47:20;;;;;;;21.85;12.55;;;-6.50;99.90;;;;;;5093072;28;20102;-75
2022/12/15 01:20:17;;;;;;;28.20;12.45;;;-3.50;99.90;;;;;;5097235;28;20131;-76
2022/12/15 01:22:44;;;;;;;23.83;12.05;;;-6.50;99.90;;;;;;5096508;28;20051;-78
2022/12/15 01:25:10;;;;;;;22.58;12.38;;;-6.50;99.90;;;;;;5096755;28;20048;-75
2022/12/15 01:27:36;;;;;;;18.90;11.57;;;-6.50;99.90;;;;;;5096757;28;20065;-76
2022/12/15 01:30:05;;;;;;;20.37;12.07;;;-6.50;99.90;;;;;;5096556;28;20127;-76
2022/12/15 01:32:30;;;;;;;22.48;11.80;;;-6.50;99.90;;;;;;5096495;28;20373;-77
2022/12/15 01:34:56;;;;;;;21.53;12.10;;;-6.50;99.90;;;;;;5096584;28;20046;-76
2022/12/15 01:37:22;;;;;;;26.33;12.73;;;-6.90;99.90;;;;;;5096495;28;20046;-75
2022/12/15 01:42:32;;;;;;;22.60;12.23;;;-6.90;99.90;;;;;;5095179;28;20052;-75
2022/12/15 01:45:22;;;;;;;20.80;12.83;;;-6.50;99.90;;;;;;5096422;28;20044;-77
2022/12/15 01:47:55;;;;;;;20.38;12.25;;;-6.50;99.90;;;;;;5096527;28;20063;-77
2022/12/15 01:50:21;;;;;;;19.85;12.05;;;-6.50;99.90;;;;;;5096038;28;20511;-75
2022/12/15 01:52:49;;;;;;;21.42;11.93;;;-6.50;99.90;;;;;;5096176;28;20427;-76
2022/12/15 01:55:17;;;;;;;25.35;12.80;;;-5.40;99.90;;;;;;5096220;28;20047;-75
2022/12/15 01:57:43;;;;;;;24.20;12.82;;;-6.50;99.90;;;;;;5095163;28;20094;-77
2022/12/15 02:00:10;;;;;;;21.80;11.68;;;-6.50;99.90;;;;;;5096193;28;20044;-77
2022/12/15 02:02:37;;;;;;;25.25;12.80;;;-6.50;99.90;;;;;;5096102;28;20054;-76
2022/12/15 02:05:03;;;;;;;;;;;-6.40;99.90;;;;;;5096309;28;20348;-75
2022/12/15 02:07:28;;;;;;;24.70;12.57;;;-6.50;99.90;;;;;;5095841;28;19920;-75
2022/12/15 02:09:57;;;;;;;24.57;12.63;;;-6.50;99.90;;;;;;5095872;28;20047;-77
2022/12/15 02:13:00;;;;;;;28.25;12.90;;;-6.40;99.90;;;;;;5095525;28;20422;-77
2022/12/15 02:15:49;;;;;;;21.67;11.80;;;-6.50;99.90;;;;;;5095750;28;20084;-76
2022/12/15 02:18:19;;;;;;;23.85;12.02;;;-6.40;99.90;;;;;;5096214;28;20066;-77
2022/12/15 02:21:23;;;;;;;22.67;12.75;;;-6.70;99.90;;;;;;5095711;28;20093;-74
2022/12/15 02:24:35;;;;;;;23.67;13.93;;;-6.50;99.90;;;;;;5095609;28;20127;-75
2022/12/15 02:27:09;;;;;;;23.10;13.50;;;-6.50;99.90;;;;;;5095600;28;20074;-77
2022/12/15 02:29:41;;;;;;;24.98;12.00;;;-6.50;99.90;;;;;;5095624;28;20066;-75
2022/12/15 02:32:10;;;;;;;23.60;12.48;;;-6.50;99.90;;;;;;5095479;28;20139;-76
2022/12/15 02:35:02;;;;;;;21.75;12.02;;;-6.50;99.90;;;;;;5094229;28;20090;-76
2022/12/15 02:37:38;;;;;;;21.77;11.82;;;-6.50;99.90;;;;;;5095593;28;20365;-75
2022/12/15 02:40:06;;;;;;;20.30;12.07;;;-6.50;99.90;;;;;;5094489;28;20036;-75
2022/12/15 02:42:34;;;;;;;20.80;11.88;;;-6.50;99.90;;;;;;5095343;28;20151;-76
2022/12/15 02:45:09;;;;;;;23.73;12.30;;;-6.50;99.90;;;;;;5094176;28;20048;-75
2022/12/15 02:47:54;;;;;;;21.38;12.13;;;-6.40;99.90;;;;;;5095976;28;20474;-76
2022/12/15 02:51:06;;;;;;;23.65;12.23;;;-6.40;99.90;;;;;;5095532;28;20052;-74
2022/12/15 02:53:47;;;;;;;21.85;12.77;;;-6.30;99.90;;;;;;5095119;28;20507;-75
2022/12/15 02:56:19;;;;;;;20.88;11.75;;;-6.70;99.90;;;;;;5095365;28;20048;-75
2022/12/15 02:58:49;;;;;;;21.52;12.15;;;-6.30;99.90;;;;;;5095379;28;20124;-76
2022/12/15 03:01:24;;;;;;;21.77;12.60;;;-6.30;99.90;;;;;;5094951;28;20047;-76
2022/12/15 03:03:50;;;;;;;23.98;12.95;;;-5.40;99.90;;;;;;5094882;28;20039;-75
2022/12/15 03:06:17;;;;;;;24.25;12.57;;;-6.30;99.90;;;;;;5093360;28;20393;-77
2022/12/15 03:08:42;;;;;;;18.50;12.18;;;-6.30;99.90;;;;;;5093386;28;20079;-77
2022/12/15 03:11:08;;;;;;;19.70;12.40;;;-6.20;99.90;;;;;;5095048;28;20132;-77
2022/12/15 03:13:33;;;;;;;23.37;12.30;;;-6.20;99.90;;;;;;5094678;28;20437;-76
2022/12/15 03:15:59;;;;;;;22.37;11.97;;;-6.40;99.90;;;;;;5094625;28;20051;-76
2022/12/15 03:18:25;;;;;;;30.60;12.33;;;-6.30;99.90;;;;;;5094611;28;20492;-77
2022/12/15 03:20:52;;;;;;;20.50;10.93;;;-6.60;99.90;;;;;;5094365;28;20127;-77
2022/12/15 03:23:18;;;;;;;23.48;11.98;;;-6.30;99.90;;;;;;5094321;28;20106;-75
2022/12/15 03:25:47;;;;;;;25.37;11.83;;;-6.20;99.90;;;;;;5094226;28;20516;-75
2022/12/15 03:28:12;;;;;;;17.92;10.93;;;-6.30;99.90;;;;;;5093902;28;20488;-75
2022/12/15 03:30:38;;;;;;;18.80;11.57;;;-6.30;99.90;;;;;;5092493;28;20115;-75
2022/12/15 03:33:04;;;;;;;22.03;11.30;;;-6.30;99.90;;;;;;5094291;28;20438;-75
2022/12/15 03:35:30;;;;;;;18.97;11.00;;;-6.30;99.90;;;;;;5094165;28;20062;-75
2022/12/15 03:37:56;;;;;;;21.13;11.30;;;-6.30;99.90;;;;;;5094203;28;20047;-75
2022/12/15 03:40:21;;;;;;;21.70;11.13;;;-6.30;99.90;;;;;;5094180;28;20040;-76
2022/12/15 03:42:47;;;;;;;18.07;11.37;;;-6.30;99.90;;;;;;5094259;28;20051;-74
2022/12/15 03:45:17;;;;;;;27.60;11.70;;;-6.50;99.90;;;;;;5094199;28;20048;-76
2022/12/15 03:47:44;;;;;;;19.13;11.85;;;-6.30;99.90;;;;;;5093814;28;20056;-76
2022/12/15 03:50:11;;;;;;;23.30;11.73;;;-6.30;99.90;;;;;;5094043;28;20136;-75
2022/12/15 03:52:36;;;;;;;20.10;11.70;;;-6.30;99.90;;;;;;5093880;28;20051;-74
2022/12/15 03:55:03;;;;;;;20.27;11.03;;;-6.30;99.90;;;;;;5093853;28;20044;-76
2022/12/15 03:57:29;;;;;;;19.55;11.80;;;-6.30;99.90;;;;;;5093915;28;20044;-75
2022/12/15 03:59:55;;;;;;;22.70;12.67;;;-6.40;99.90;;;;;;5092924;28;20068;-75
2022/12/15 04:02:20;;;;;;;21.33;11.17;;;-6.40;99.90;;;;;;5093606;28;20047;-74
2022/12/15 04:04:47;;;;;;;20.17;11.90;;;-6.30;99.90;;;;;;5093418;28;20124;-74
2022/12/15 04:07:13;;;;;;;;;;;-6.90;99.90;;;;;;5094211;28;20113;-76
2022/12/15 04:09:38;;;;;;;19.70;11.45;;;-6.30;99.90;;;;;;5093738;28;19920;-76
2022/12/15 04:12:04;;;;;;;22.90;11.73;;;-6.30;99.90;;;;;;5092566;28;20044;-76
2022/12/15 04:14:29;;;;;;;20.77;10.57;;;-6.30;99.90;;;;;;5093956;28;20036;-74
2022/12/15 04:16:55;;;;;;;19.77;10.83;;;-6.20;99.90;;;;;;5093715;28;20048;-74
2022/12/15 04:22:05;;;;;;;16.25;10.50;;;-6.30;99.90;;;;;;5093456;28;20044;-76
2022/12/15 05:33:03;;;;;;;18.98;10.68;;;-5.40;99.90;;;;;;5096980;28;20135;-75
2022/12/15 05:35:28;;;;;;;19.73;10.85;;;-6.20;99.90;;;;;;5096860;28;20044;-76
2022/12/15 05:37:54;;;;;;;19.23;10.43;;;-6.30;99.90;;;;;;5096531;28;20105;-76
2022/12/15 05:40:19;;;;;;;18.87;10.57;;;-6.30;99.90;;;;;;5095946;28;20425;-73
2022/12/15 05:42:45;;;;;;;20.40;10.83;;;-6.20;99.90;;;;;;5096496;28;20052;-76
2022/12/15 05:45:10;;;;;;;18.83;10.57;;;-6.30;99.90;;;;;;5096379;28;20690;-77
2022/12/15 05:47:36;;;;;;;17.80;10.70;;;-6.20;99.90;;;;;;5094900;28;20485;-75
2022/12/15 05:50:02;;;;;;;20.00;10.73;;;-6.20;99.90;;;;;;5096605;28;20044;-74
2022/12/15 05:52:28;;;;;;;16.52;10.27;;;-6.20;99.90;;;;;;5095577;28;20548;-76
2022/12/15 05:54:53;;;;;;;18.40;10.57;;;-6.20;99.90;;;;;;5095969;28;20127;-85
2022/12/15 05:57:19;;;;;;;20.63;10.63;;;-6.20;99.90;;;;;;5094973;28;20040;-75
2022/12/15 05:59:45;;;;;;;16.83;10.53;;;-6.20;99.90;;;;;;5096051;28;20395;-76
2022/12/15 06:02:10;;;;;;;19.80;10.90;;;-6.10;99.90;;;;;;5096157;28;20106;-76
2022/12/15 06:04:36;;;;;;;21.80;10.23;;;-6.10;99.90;;;;;;5096440;28;20046;-72
2022/12/15 06:07:02;;;;;;;15.17;9.33;;;-6.20;99.90;;;;;;5096250;28;20048;-73
2022/12/15 06:09:27;;;;;;;16.43;10.60;;;-6.10;99.90;;;;;;5095811;28;20032;-72
2022/12/15 06:11:53;;;;;;;17.27;10.00;;;-6.10;99.90;;;;;;5095937;28;20052;-73
2022/12/15 06:14:19;;;;;;;19.87;10.53;;;-6.10;99.90;;;;;;5095732;28;20055;-73
2022/12/15 06:16:45;;;;;;;16.93;10.50;;;-6.10;99.90;;;;;;5095779;28;20135;-72
2022/12/15 06:19:11;;;;;;;19.30;10.35;;;-6.10;99.90;;;;;;5095979;28;20526;-72
2022/12/15 06:21:36;;;;;;;22.80;11.53;;;-6.20;99.90;;;;;;5096009;28;20036;-72
2022/12/15 06:24:04;;;;;;;17.27;10.27;;;-6.10;99.90;;;;;;5095598;28;20484;-72
2022/12/15 06:26:32;;;;;;;19.30;11.13;;;-6.00;99.90;;;;;;5095564;28;20040;-73
2022/12/15 06:29:01;;;;;;;19.13;10.70;;;-6.20;99.90;;;;;;5095418;28;20044;-72
2022/12/15 06:31:27;;;;;;;21.00;10.93;;;-6.10;99.90;;;;;;5095965;28;20048;-73
2022/12/15 06:33:54;;;;;;;17.77;11.30;;;-6.00;99.90;;;;;;5095660;28;20048;-73
2022/12/15 06:36:20;;;;;;;;;;;-6.00;99.90;;;;;;5095856;28;20054;-71
2022/12/15 06:38:46;;;;;;;19.63;11.43;;;-6.00;99.90;;;;;;5095304;28;19920;-71
2022/12/15 06:41:14;;;;;;;21.67;11.55;;;-6.00;99.90;;;;;;5095329;28;20403;-72
2022/12/15 06:43:40;;;;;;;20.20;11.77;;;-6.00;99.90;;;;;;5095497;28;20514;-73
2022/12/15 06:46:07;;;;;;;18.02;10.85;;;-5.90;99.90;;;;;;5095684;28;20408;-76
2022/12/15 06:48:33;;;;;;;;;;;-6.00;99.90;;;;;;5095793;28;20056;-74
2022/12/15 06:51:06;;;;;;;20.17;11.50;;;-5.90;99.90;;;;;;5095148;28;19927;-74
2022/12/15 06:53:36;;;;;;;23.25;11.63;;;-5.90;99.90;;;;;;5095071;28;20040;-74
2022/12/15 06:56:06;;;;;;;16.48;10.77;;;-6.00;99.90;;;;;;5095163;28;20048;-74
2022/12/15 06:58:32;;;;;;;18.63;10.88;;;-6.00;99.90;;;;;;5095273;28;20048;-75
2022/12/15 07:00:58;;;;;;;19.03;11.80;;;-6.00;99.90;;;;;;5094990;28;20181;-76
2022/12/15 07:03:23;;;;;;;21.30;12.07;;;-5.90;99.90;;;;;;5094011;28;20048;-75
2022/12/15 07:06:03;;;;;;;16.80;10.97;;;-5.90;99.90;;;;;;5094219;28;20044;-76
2022/12/15 07:08:29;;;;;;;19.15;11.43;;;-5.90;99.90;;;;;;5094773;28;20079;-76
2022/12/15 07:10:55;;;;;;;21.83;12.03;;;-5.90;99.90;;;;;;5094722;28;20075;-77
2022/12/15 07:13:21;;;;;;;23.57;11.23;;;-5.90;99.90;;;;;;5095202;28;20475;-77
2022/12/15 07:15:48;;;;;;;20.80;11.97;;;-5.90;99.90;;;;;;5094887;28;20067;-77
2022/12/15 07:18:15;;;;;;;16.80;10.77;;;-5.90;99.90;;;;;;5094952;28;20692;-76
2022/12/15 07:20:41;;;;;;;30.80;11.90;;;-6.40;99.90;;;;;;5094998;28;20392;-75
2022/12/15 07:23:08;;;;;;;21.03;11.73;;;-5.90;99.90;;;;;;5095056;28;20040;-77
2022/12/15 07:25:40;;;;;;;17.25;10.18;;;-5.90;99.90;;;;;;5091595;27;20439;-75
2022/12/15 07:28:06;;;;;;;16.93;10.30;;;-5.90;99.90;;;;;;5091040;28;20052;-75
2022/12/15 07:30:32;;;;;;;20.80;11.02;;;-5.90;99.90;;;;;;5090871;28;20043;-81
2022/12/15 07:32:59;;;;;;;19.45;11.27;;;-5.90;99.90;;;;;;5090771;28;20071;-75
2022/12/15 07:35:25;;;;;;;21.50;11.90;;;-5.90;99.90;;;;;;5090656;28;20040;-74
2022/12/15 07:37:51;;;;;;;20.10;11.20;;;;;;;;;;5089484;28;20039;-74
2022/12/15 07:40:16;;;;;;;19.20;11.90;;;-5.80;99.90;;;;;;5088251;28;20096;-75
2022/12/15 07:42:42;;;;;;;26.77;11.93;;;-6.20;99.90;;;;;;5090640;28;20052;-74
2022/12/15 07:45:09;;;;;;;19.90;11.40;;;-5.80;99.90;;;;;;5090680;28;20044;-74
2022/12/15 07:47:35;;;;;;;19.73;11.68;;;-5.70;99.90;;;;;;5090633;28;20052;-74
2022/12/15 07:50:01;;;;;;;18.07;12.23;;;-5.50;99.90;;;;;;5090573;28;20051;-74
2022/12/15 07:52:27;;;;;;;25.43;12.33;;;-5.40;99.90;;;;;;5090633;28;20102;-74
2022/12/15 07:54:52;;;;;;;16.95;11.65;;;-5.30;99.90;;;;;;5090567;28;20282;-75
2022/12/15 07:57:18;;;;;;;24.60;11.90;;;-5.40;99.90;;;;;;5090525;28;20044;-74
2022/12/15 07:59:44;;;;;;;21.30;11.63;;;-5.00;99.90;;;;;;5090715;28;20048;-75
2022/12/15 08:02:11;;;;;;;21.23;12.37;;;-4.90;99.90;;;;;;5090414;28;20044;-74
2022/12/15 08:04:37;;;;;;;23.42;13.43;;;-4.80;99.90;;;;;;5090334;28;20036;-75
2022/12/15 08:07:03;;;;;;;26.05;13.27;;;-4.70;99.90;;;;;;5090247;28;20088;-74
2022/12/15 08:09:30;;;;;;;25.58;12.43;;;-5.00;99.90;;;;;;5090378;28;20055;-74
2022/12/15 08:11:56;;;;;;;23.95;13.10;;;-4.50;99.90;;;;;;5090245;28;20040;-74
2022/12/15 08:14:22;;;;;;;21.67;12.57;;;-4.40;99.90;;;;;;5090281;28;20052;-74
2022/12/15 08:16:48;;;;;;;26.45;12.90;;;-4.40;99.90;;;;;;5089856;28;20044;-75
2022/12/15 08:19:14;;;;;;;25.53;13.07;;;-4.30;99.90;;;;;;5089974;28;20073;-74
2022/12/15 08:21:41;;;;;;;24.80;13.13;;;-4.30;99.90;;;;;;5089921;28;20052;-74
2022/12/15 08:24:08;;;;;;;;;;;-4.20;99.90;;;;;;5090641;28;20476;-74
2022/12/15 08:26:34;;;;;;;23.27;13.45;;;-4.60;99.90;;;;;;5090232;28;19924;-75
2022/12/15 08:29:04;;;;;;;32.03;13.60;;;-4.10;99.90;;;;;;5089808;28;20094;-75
2022/12/15 08:31:32;;;;;;;25.33;13.32;;;-4.10;99.90;;;;;;5089916;28;20052;-74
2022/12/15 08:33:58;;;;;;;24.95;14.52;;;-4.10;99.90;;;;;;5089755;28;20137;-75
2022/12/15 08:36:23;;;;;;;22.63;12.80;;;-4.10;99.90;;;;;;5079842;28;20170;-75
2022/12/15 08:38:49;;;;;;;24.88;13.00;;;-4.10;99.90;;;;;;5076689;28;20514;-75
2022/12/15 08:41:23;;;;;;;25.58;12.25;;;-4.10;99.90;;;;;;5076171;28;20152;-75
2022/12/15 08:43:50;;;;;;;35.10;13.88;;;-4.00;99.90;;;;;;5076298;28;20044;-75
2022/12/15 08:46:17;;;;;;;23.50;13.95;;;-4.00;99.90;;;;;;5076414;28;20044;-75
2022/12/15 08:48:43;;;;;;;26.55;14.13;;;-4.00;99.90;;;;;;5076392;28;20399;-75
2022/12/15 08:51:09;;;;;;;25.20;13.65;;;-4.00;99.90;;;;;;5076145;28;20123;-75
2022/12/15 08:53:34;;;;;;;24.73;12.87;;;-3.70;99.90;;;;;;5076375;28;20054;-75
2022/12/15 08:56:03;;;;;;;27.00;13.65;;;-4.00;99.90;;;;;;5076015;28;20407;-75
2022/12/15 08:58:28;;;;;;;27.70;13.93;;;-4.00;99.90;;;;;;5075767;28;20052;-75
2022/12/15 09:01:11;;;;;;;27.45;14.02;;;-4.00;99.90;;;;;;5075751;28;20045;-74
2022/12/15 09:03:37;;;;;;;23.42;13.50;;;-3.90;99.90;;;;;;5075669;28;20048;-75
2022/12/15 09:06:11;;;;;;;24.42;13.43;;;-3.70;99.90;;;;;;5076331;28;20052;-75
2022/12/15 09:08:37;;;;;;;23.38;13.68;;;-3.80;99.90;;;;;;5075577;28;20048;-75
2022/12/15 09:11:04;;;;;;;27.08;13.45;;;-3.80;99.90;;;;;;5075572;28;20041;-75
2022/12/15 09:13:30;;;;;;;28.80;14.00;;;-3.40;99.90;;;;;;5075493;28;20045;-75
2022/12/15 09:16:16;;;;;;;27.60;14.07;;;-3.70;99.90;;;;;;5075301;28;20044;-75
2022/12/15 09:18:45;;;;;;;21.95;14.63;;;-3.30;99.90;;;;;;5075870;28;20499;-75
2022/12/15 09:21:11;;;;;;;26.20;13.73;;;-2.80;99.90;;;;;;5075157;28;20397;-75
2022/12/15 09:23:38;;;;;;;25.05;13.57;;;-3.50;99.90;;;;;;5075054;28;20048;-75
2022/12/15 09:26:06;;;;;;;24.13;13.75;;;-3.50;99.90;;;;;;5075352;28;20546;-74
2022/12/15 09:28:32;;;;;;;22.95;14.38;;;-3.90;99.90;;;;;;5075225;28;20396;-75
2022/12/15 09:31:05;;;;;;;25.60;14.07;;;-3.40;99.90;;;;;;5075166;28;20059;-75
2022/12/15 09:33:31;;;;;;;27.92;15.60;;;-3.30;99.90;;;;;;5075236;28;20079;-75
2022/12/15 09:35:57;;;;;;;23.85;14.55;;;-3.30;99.90;;;;;;5075641;28;20118;-74
2022/12/15 09:38:23;;;;;;;24.33;15.00;;;-3.20;99.90;;;;;;5075063;28;20496;-75
2022/12/15 09:40:48;;;;;;;26.87;14.67;;;-3.20;99.90;;;;;;5075064;28;20048;-75
2022/12/15 09:43:20;;;;;;;30.47;14.33;;;-3.00;99.90;;;;;;5074994;28;20110;-75
2022/12/15 09:45:51;;;;;;;24.63;14.52;;;-3.00;99.90;;;;;;5075078;28;20048;-75
2022/12/15 09:48:20;;;;;;;29.10;14.05;;;-2.90;99.90;;;;;;5074215;28;20102;-75
2022/12/15 09:50:49;;;;;;;24.00;14.13;;;-2.80;99.90;;;;;;5074948;28;20123;-75
2022/12/15 09:53:17;;;;;;;26.17;14.32;;;-2.80;99.90;;;;;;5074920;28;20393;-75
2022/12/15 09:55:47;;;;;;;25.65;14.85;;;-2.20;99.90;;;;;;5074697;28;20131;-75
2022/12/15 09:58:39;;;;;;;27.70;15.30;;;-2.60;99.90;;;;;;5074782;28;20095;-75
2022/12/15 10:01:30;;;;;;;23.60;14.20;;;-2.50;99.90;;;;;;5074631;28;20518;-75
2022/12/15 10:04:15;;;;;;;25.58;14.63;;;-1.40;99.90;;;;;;5064862;28;20044;-75
2022/12/15 10:07:17;;;;;;;24.48;13.63;;;-2.40;99.90;;;;;;5074973;28;20048;-75
2022/12/15 10:09:42;;;;;;;29.02;15.35;;;-2.40;99.90;;;;;;5074688;28;20125;-75
2022/12/15 10:12:15;;;;;;;28.98;13.38;;;-2.30;99.90;;;;;;5074381;28;20045;-75
2022/12/15 10:15:12;;;;;;;25.83;14.25;;;-2.20;99.90;;;;;;5074235;28;20042;-75
2022/12/15 10:17:58;;;;;;;28.52;14.45;;;-2.10;99.90;;;;;;5074593;28;20095;-75
2022/12/15 10:20:30;;;;;;;24.40;13.18;;;-2.00;99.90;;;;;;5074055;28;20385;-75
2022/12/15 10:23:08;;;;;;;26.17;13.90;;;-1.20;99.90;;;;;;5074154;28;20439;-75
2022/12/15 10:25:34;;;;;;;20.67;13.43;;;-2.00;99.90;;;;;;5075018;28;20091;-75
2022/12/15 10:28:14;;;;;;;20.58;13.65;;;-2.00;99.90;;;;;;5074443;28;20425;-75
2022/12/15 10:30:59;;;;;;;24.27;13.52;;;-2.00;99.90;;;;;;5074076;28;20050;-75
2022/12/15 10:33:35;;;;;;;20.23;12.63;;;-2.20;99.90;;;;;;5073915;28;20396;-75
2022/12/15 10:36:01;;;;;;;22.52;13.68;;;-2.00;99.90;;;;;;5074014;28;20166;-75
2022/12/15 10:38:42;;;;;;;20.60;12.30;;;-2.40;99.90;;;;;;5074288;28;20044;-75
2022/12/15 10:41:11;;;;;;;24.23;12.95;;;-2.00;99.90;;;;;;5073753;28;20052;-75
2022/12/15 10:43:50;;;;;;;22.60;12.38;;;-1.90;99.90;;;;;;5073949;28;20084;-75
2022/12/15 10:46:26;;;;;;;19.60;13.30;;;-1.80;99.90;;;;;;5073940;28;20040;-75
2022/12/15 10:48:59;;;;;;;27.63;13.32;;;-1.80;99.90;;;;;;5073893;28;20097;-76
2022/12/15 10:51:35;;;;;;;20.02;13.68;;;-1.70;99.90;;;;;;5074132;28;20396;-75
2022/12/15 10:54:08;;;;;;;25.58;13.85;;;-1.70;99.90;;;;;;5074022;28;20041;-75
2022/12/15 10:56:45;;;;;;;27.15;13.43;;;-1.40;99.90;;;;;;5073721;28;20063;-75
2022/12/15 10:59:31;;;;;;;25.60;14.03;;;-1.50;99.90;;;;;;5073434;28;20044;-75
2022/12/15 11:02:20;;;;;;;21.17;13.65;;;-1.40;99.90;;;;;;5073573;28;20291;-76
2022/12/15 11:05:04;;;;;;;27.15;14.85;;;-1.20;99.90;;;;;;5073460;28;20044;-76
2022/12/15 11:07:39;;;;;;;21.40;13.55;;;-1.00;99.90;;;;;;5074237;28;20044;-75
2022/12/15 11:10:21;;;;;;;24.20;14.45;;;-0.70;99.90;;;;;;5073794;28;20052;-76
2022/12/15 11:12:55;;;;;;;19.85;13.65;;;-0.50;99.90;;;;;;5073441;28;20037;-75
2022/12/15 11:15:21;;;;;;;24.60;14.23;;;-0.30;99.90;;;;;;5073446;28;20040;-75
2022/12/15 11:18:20;;;;;;;27.00;14.73;;;0.70;99.90;;;;;;5073891;28;20489;-75
2022/12/15 11:21:08;;;;;;;23.65;14.32;;;0.00;99.90;;;;;;5036319;28;20108;-75
2022/12/15 11:23:58;;;;;;;20.40;12.48;;;0.10;99.90;;;;;;5073015;28;20064;-75
2022/12/15 11:26:33;;;;;;;23.63;13.52;;;0.10;99.90;;;;;;5073334;28;20136;-75
2022/12/15 11:29:28;;;;;;;20.75;13.05;;;0.40;99.90;;;;;;5073855;28;20040;-75
2022/12/15 11:31:55;;;;;;;19.25;12.48;;;0.10;99.90;;;;;;5073438;28;20066;-76
2022/12/15 11:34:24;;;;;;;23.10;12.40;;;0.10;99.90;;;;;;5072530;28;20056;-76
2022/12/15 11:37:31;;;;;;;20.35;13.27;;;0.10;99.90;;;;;;5073435;28;20048;-75
2022/12/15 11:39:57;;;;;;;21.58;13.88;;;0.10;99.90;;;;;;5050337;28;20444;-76
2022/12/15 11:42:43;;;;;;;22.88;13.00;;;0.20;99.90;;;;;;5072950;28;20087;-76
2022/12/15 11:45:20;;;;;;;18.80;12.25;;;0.30;99.90;;;;;;5073491;28;20047;-76
2022/12/15 11:47:52;;;;;;;21.92;12.60;;;0.30;99.90;;;;;;5073610;28;20459;-76
2022/12/15 11:50:32;;;;;;;22.55;12.80;;;0.30;99.90;;;;;;5073212;28;20040;-76
2022/12/15 11:53:13;;;;;;;17.40;12.73;;;0.30;99.90;;;;;;5073239;28;20045;-76
2022/12/15 11:55:45;;;;;;;20.45;13.18;;;0.30;99.90;;;;;;5073177;28;20041;-76
2022/12/15 11:58:26;;;;;;;21.38;14.07;;;0.30;99.90;;;;;;5073137;28;20051;-76
2022/12/15 12:01:12;;;;;;;18.70;11.98;;;0.40;99.90;;;;;;5073145;28;20446;-76
2022/12/15 12:03:50;;;;;;;22.95;13.40;;;0.50;99.90;;;;;;5072991;28;20114;-76
2022/12/15 12:06:25;;;;;;;25.90;13.40;;;0.50;99.90;;;;;;5073450;28;20147;-76
2022/12/15 12:09:14;;;;;;;22.80;13.25;;;0.50;99.90;;;;;;5073236;28;20051;-76
2022/12/15 12:11:48;;;;;;;23.30;13.23;;;0.50;99.90;;;;;;5075350;28;20044;-76
2022/12/15 12:14:32;;;;;;;23.10;13.98;;;0.50;99.90;;;;;;5076643;28;20044;-76
2022/12/15 12:17:27;;;;;;;22.20;13.50;;;0.40;99.90;;;;;;5076658;28;20053;-76
2022/12/15 12:19:58;;;;;;;23.48;14.02;;;0.40;99.90;;;;;;5076706;28;20211;-76
2022/12/15 12:23:01;;;;;;;24.42;14.15;;;0.40;99.90;;;;;;5077061;28;20051;-76
2022/12/15 12:25:29;;;;;;;23.23;14.48;;;0.40;99.90;;;;;;5060048;28;20057;-76
2022/12/15 12:28:04;;;;;;;24.23;15.57;;;0.40;99.90;;;;;;5076322;28;20055;-75
2022/12/15 12:30:41;;;;;;;20.50;14.63;;;0.40;99.90;;;;;;5076408;28;20044;-76
2022/12/15 12:33:28;;;;;;;22.05;14.20;;;0.30;99.90;;;;;;5076850;28;20080;-76
2022/12/15 12:35:59;;;;;;;19.77;13.55;;;0.30;99.90;;;;;;5076525;28;20083;-76
2022/12/15 12:38:48;;;;;;;23.73;14.65;;;0.20;99.90;;;;;;5076339;28;20040;-76
2022/12/15 12:41:22;;;;;;;23.45;14.45;;;0.20;99.90;;;;;;5076219;28;20044;-76
2022/12/15 12:43:54;;;;;;;24.90;15.93;;;0.10;99.90;;;;;;5076188;28;20041;-76
2022/12/15 12:46:35;;;;;;;21.70;14.88;;;0.10;99.90;;;;;;5076503;28;20071;-76
2022/12/15 12:49:06;;;;;;;25.77;15.88;;;0.10;99.90;;;;;;5076205;28;20092;-76
2022/12/15 12:51:39;;;;;;;27.60;16.25;;;0.10;99.90;;;;;;5076006;28;20128;-76
2022/12/15 12:54:38;;;;;;;22.67;14.30;;;0.00;99.90;;;;;;5075678;28;20487;-76
2022/12/15 12:57:35;;;;;;;28.90;15.52;;;0.00;99.90;;;;;;5076180;28;20052;-76
2022/12/15 13:00:06;;;;;;;25.05;15.15;;;0.00;99.90;;;;;;5071410;28;20049;-76
2022/12/15 13:02:36;;;;;;;28.00;16.20;;;0.00;99.90;;;;;;5075831;28;20043;-76
2022/12/15 13:05:26;;;;;;;21.77;14.77;;;0.10;99.90;;;;;;5075681;28;20481;-76
2022/12/15 13:08:09;;;;;;;25.10;16.10;;;0.20;99.90;;;;;;5075973;28;20045;-76
2022/12/15 13:10:44;;;;;;;25.48;16.35;;;0.20;99.90;;;;;;5075767;28;20049;-76
2022/12/15 13:13:36;;;;;;;22.63;15.70;;;0.20;99.90;;;;;;5076146;28;20377;-76
2022/12/15 13:16:11;;;;;;;26.55;16.15;;;0.30;99.90;;;;;;5076102;28;20052;-76
2022/12/15 13:19:03;;;;;;;23.35;16.10;;;0.30;99.90;;;;;;5075434;28;20051;-76
2022/12/15 13:21:41;;;;;;;23.35;15.35;;;0.30;99.90;;;;;;5074785;28;20131;-76
2022/12/15 13:24:21;;;;;;;25.45;16.00;;;0.40;99.90;;;;;;5075217;28;20094;-76
2022/12/15 13:26:48;;;;;;;21.88;15.40;;;0.30;99.90;;;;;;5075788;28;20392;-75
2022/12/15 13:29:16;;;;;;;25.42;16.90;;;0.40;99.90;;;;;;5074145;28;20041;-76
2022/12/15 13:31:47;;;;;;;22.90;16.05;;;0.50;99.90;;;;;;5075605;28;20048;-75
2022/12/15 13:34:17;;;;;;;25.17;16.70;;;0.50;99.90;;;;;;5075538;28;20074;-76
2022/12/15 13:36:49;;;;;;;30.50;18.42;;;0.50;99.90;;;;;;5075402;28;20048;-76
2022/12/15 13:39:17;;;;;;;26.08;16.83;;;0.50;99.90;;;;;;5075073;28;20087;-76
2022/12/15 13:41:46;;;;;;;26.90;16.27;;;0.50;99.90;;;;;;5075049;28;20083;-76
2022/12/15 13:44:33;;;;;;;33.63;16.77;;;0.40;99.90;;;;;;5075181;28;20091;-76
2022/12/15 13:47:05;;;;;;;24.70;15.68;;;0.40;99.90;;;;;;5075195;28;20083;-76
2022/12/15 13:49:36;;;;;;;27.75;16.40;;;0.40;99.90;;;;;;5075083;28;20400;-76
2022/12/15 13:52:10;;;;;;;26.92;15.52;;;0.40;99.90;;;;;;5073806;28;20033;-76
2022/12/15 13:54:40;;;;;;;26.98;16.17;;;0.40;99.90;;;;;;5074689;28;20048;-78
2022/12/15 13:57:11;;;;;;;25.30;14.77;;;0.30;99.90;;;;;;5074628;28;20101;-76
2022/12/15 14:00:06;;;;;;;28.35;15.95;;;0.30;99.90;;;;;;5074771;28;20044;-81
2022/12/15 14:02:35;;;;;;;27.27;16.10;;;0.30;99.90;;;;;;5072801;28;20075;-76
2022/12/15 14:05:17;;;;;;;26.58;15.50;;;0.20;99.90;;;;;;5074458;28;20047;-76
2022/12/15 14:07:58;;;;;;;27.33;15.70;;;0.20;99.90;;;;;;5074600;28;20088;-77
2022/12/15 14:10:33;;;;;;;29.48;16.65;;;0.20;99.90;;;;;;5074496;28;20048;-76
2022/12/15 14:13:24;;;;;;;23.85;16.35;;;0.20;99.90;;;;;;5074360;28;20044;-75
2022/12/15 14:16:01;;;;;;;32.13;16.80;;;0.20;99.90;;;;;;5068601;28;20048;-76
2022/12/15 14:18:27;;;;;;;;;;;0.10;99.90;;;;;;5074672;28;20044;-76
2022/12/15 14:20:53;;;;;;;25.73;16.38;;;0.40;99.90;;;;;;5074219;28;19977;-75
2022/12/15 14:23:20;;;;;;;25.48;16.67;;;0.10;99.90;;;;;;5073950;28;20041;-75
2022/12/15 14:25:56;;;;;;;27.92;15.27;;;0.00;99.90;;;;;;5074173;28;20051;-77
2022/12/15 14:28:29;;;;;;;28.73;17.23;;;0.00;99.90;;;;;;5074020;28;20492;-76
2022/12/15 14:30:57;;;;;;;28.20;17.75;;;0.00;99.90;;;;;;5074471;28;20048;-77
2022/12/15 14:33:23;;;;;;;31.95;16.52;;;-0.10;99.90;;;;;;5072695;28;20135;-75
2022/12/15 14:35:52;;;;;;;27.65;16.88;;;-0.10;99.90;;;;;;5074355;28;20127;-76
2022/12/15 14:38:31;;;;;;;26.98;16.90;;;-0.10;99.90;;;;;;5074182;28;20515;-80
2022/12/15 14:41:00;;;;;;;26.27;17.15;;;-0.20;99.90;;;;;;5074322;28;20041;-77
2022/12/15 14:43:32;;;;;;;32.92;17.08;;;-0.20;99.90;;;;;;5074187;28;20070;-75
2022/12/15 14:46:14;;;;;;;28.23;17.42;;;-0.30;99.90;;;;;;5072385;28;20055;-77
2022/12/15 14:49:03;;;;;;;25.90;16.88;;;-0.30;99.90;;;;;;5073613;28;20048;-78
2022/12/15 14:51:31;;;;;;;27.33;16.50;;;-0.20;99.90;;;;;;5073957;28;20467;-78
2022/12/15 14:53:56;;;;;;;30.40;17.05;;;-0.50;99.90;;;;;;5073637;28;20032;-76
2022/12/15 14:56:25;;;;;;;27.67;17.08;;;0.10;99.90;;;;;;5073827;28;20401;-76
2022/12/15 14:59:15;;;;;;;27.95;17.75;;;-0.40;99.90;;;;;;5073541;28;20165;-76
2022/12/15 15:01:52;;;;;;;27.83;16.27;;;-0.40;99.90;;;;;;5073588;28;20552;-76
2022/12/15 15:04:28;;;;;;;28.83;17.92;;;-0.40;99.90;;;;;;5073357;28;20041;-76
2022/12/15 15:07:03;;;;;;;29.92;17.40;;;-0.50;99.90;;;;;;5073531;28;20177;-76
2022/12/15 15:09:37;;;;;;;29.83;17.83;;;-0.50;99.90;;;;;;5073534;28;20059;-75
2022/12/15 15:12:04;;;;;;;32.05;19.58;;;-0.50;99.90;;;;;;5073537;28;20059;-76
2022/12/15 15:14:36;;;;;;;30.58;17.98;;;-0.60;99.90;;;;;;5073498;28;20092;-76
2022/12/15 15:17:22;;;;;;;29.15;18.13;;;-0.10;99.90;;;;;;5073101;28;20484;-77
2022/12/15 15:20:17;;;;;;;31.15;19.20;;;-0.70;99.90;;;;;;5073176;28;20045;-76